createdAt,value
2022-10-01T00:02:01.611Z,4.82
2022-10-01T00:04:29.575Z,5.30
2022-10-01T00:06:59.270Z,4.47
2022-10-01T00:09:26.512Z,5.15
2022-10-01T00:11:54.240Z,5.00
2022-10-01T00:14:20.925Z,4.90
2022-10-01T00:16:47.656Z,4.80
2022-10-01T00:19:15.064Z,4.72
2022-10-01T00:21:42.334Z,4.68
2022-10-01T00:24:12.614Z,4.57
2022-10-01T00:26:39.515Z,4.85
2022-10-01T00:29:10.243Z,4.45
2022-10-01T00:31:37.462Z,4.63
2022-10-01T00:34:04.566Z,4.85
2022-10-01T00:36:32.516Z,4.63
2022-10-01T00:39:02.284Z,4.82
2022-10-01T00:41:31.700Z,5.18
2022-10-01T00:44:22.718Z,4.25
2022-10-01T00:46:50.035Z,4.80
2022-10-01T00:49:21.286Z,4.30
2022-10-01T00:51:52.758Z,4.90
2022-10-01T00:54:23.852Z,5.03
2022-10-01T00:56:53.559Z,4.70
2022-10-01T00:59:20.819Z,4.25
2022-10-01T01:01:48.732Z,3.90
2022-10-01T01:04:18.218Z,3.90
2022-10-01T01:07:00.972Z,3.80
2022-10-01T01:09:34.599Z,3.53
2022-10-01T01:12:08.584Z,4.30
2022-10-01T01:15:10.369Z,3.78
2022-10-01T01:17:54.682Z,3.70
2022-10-01T01:20:58.070Z,4.03
2022-10-01T01:23:36.817Z,3.13
2022-10-01T01:26:20.106Z,3.28
2022-10-01T01:28:52.125Z,3.30
2022-10-01T01:31:25.056Z,3.30
2022-10-01T01:33:55.145Z,2.63
2022-10-01T01:36:28.668Z,2.55
2022-10-01T01:39:04.235Z,2.60
2022-10-01T01:41:37.400Z,2.30
2022-10-01T01:44:09.040Z,3.38
2022-10-01T01:46:40.309Z,2.70
2022-10-01T01:49:07.726Z,2.40
2022-10-01T01:51:43.544Z,2.83
2022-10-01T01:54:10.365Z,2.90
2022-10-01T01:56:39.534Z,3.03
2022-10-01T01:59:07.131Z,2.90
2022-10-01T02:01:39.573Z,2.13
2022-10-01T02:04:28.351Z,2.30
2022-10-01T02:09:42.880Z,2.05
2022-10-01T02:12:19.718Z,2.65
2022-10-01T02:15:13.433Z,2.38
2022-10-01T02:18:18.717Z,2.15
2022-10-01T02:21:20.044Z,1.90
2022-10-01T02:23:58.033Z,1.67
2022-10-01T02:26:28.343Z,1.90
2022-10-01T02:28:58.163Z,1.77
2022-10-01T02:31:25.588Z,1.73
2022-10-01T02:33:54.573Z,1.92
2022-10-01T02:36:22.994Z,1.90
2022-10-01T02:38:51.626Z,1.48
2022-10-01T02:43:58.908Z,1.30
2022-10-01T02:46:54.749Z,1.30
2022-10-01T02:49:21.716Z,1.30
2022-10-01T02:52:07.103Z,1.65
2022-10-01T02:54:53.777Z,1.60
2022-10-01T02:57:24.032Z,1.15
2022-10-01T02:59:52.069Z,1.40
2022-10-01T03:02:20.041Z,1.60
2022-10-01T03:04:49.663Z,1.60
2022-10-01T03:07:16.772Z,1.55
2022-10-01T03:09:43.500Z,1.20
2022-10-01T03:12:13.409Z,2.00
2022-10-01T03:14:40.021Z,1.48
2022-10-01T03:17:07.405Z,1.80
2022-10-01T03:19:34.428Z,1.50
2022-10-01T03:22:01.366Z,1.30
2022-10-01T03:24:28.132Z,1.60
2022-10-01T03:26:58.228Z,1.75
2022-10-01T03:29:26.331Z,1.80
2022-10-01T03:31:53.718Z,1.95
2022-10-01T03:34:20.794Z,1.52
2022-10-01T03:36:47.570Z,1.67
2022-10-01T03:39:14.434Z,1.75
2022-10-01T03:41:41.391Z,1.88
2022-10-01T03:44:08.130Z,1.92
2022-10-01T03:46:34.862Z,2.28
2022-10-01T03:49:01.662Z,2.55
2022-10-01T03:51:29.630Z,2.17
2022-10-01T03:53:57.617Z,1.98
2022-10-01T03:56:24.384Z,1.95
2022-10-01T03:58:51.969Z,2.67
2022-10-01T04:01:19.759Z,2.60
2022-10-01T04:03:47.123Z,2.87
2022-10-01T04:06:13.791Z,2.67
2022-10-01T04:08:40.622Z,2.42
2022-10-01T04:11:07.826Z,2.78
2022-10-01T04:13:35.368Z,3.28
2022-10-01T04:16:06.819Z,2.97
2022-10-01T04:18:34.211Z,3.30
2022-10-01T04:21:01.209Z,3.28
2022-10-01T04:23:27.854Z,3.17
2022-10-01T04:25:54.913Z,3.50
2022-10-01T04:28:21.726Z,4.13
2022-10-01T04:30:48.450Z,4.32
2022-10-01T04:33:17.031Z,3.97
2022-10-01T04:35:43.784Z,4.18
2022-10-01T04:38:16.908Z,4.45
2022-10-01T04:40:43.893Z,4.63
2022-10-01T04:43:12.512Z,4.57
2022-10-01T04:45:39.696Z,5.03
2022-10-01T04:48:06.364Z,4.68
2022-10-01T04:50:33.394Z,4.78
2022-10-01T04:53:00.094Z,4.72
2022-10-01T04:55:26.983Z,4.95
2022-10-01T04:57:53.867Z,5.28
2022-10-01T05:00:24.490Z,5.15
2022-10-01T05:02:52.091Z,5.22
2022-10-01T05:05:20.690Z,5.55
2022-10-01T05:07:47.915Z,5.18
2022-10-01T05:10:18.023Z,5.65
2022-10-01T05:12:46.253Z,5.70
2022-10-01T05:15:14.042Z,5.15
2022-10-01T05:17:40.771Z,5.60
2022-10-01T05:20:10.059Z,5.55
2022-10-01T05:22:36.681Z,5.72
2022-10-01T05:25:03.786Z,5.55
2022-10-01T05:27:37.722Z,5.80
2022-10-01T05:30:05.516Z,5.88
2022-10-01T05:32:32.600Z,5.77
2022-10-01T05:34:59.244Z,6.07
2022-10-01T05:37:26.134Z,5.32
2022-10-01T05:39:52.864Z,4.55
2022-10-01T05:42:19.599Z,5.00
2022-10-01T05:44:46.369Z,4.78
2022-10-01T05:47:14.460Z,5.13
2022-10-01T05:49:44.707Z,5.45
2022-10-01T05:52:13.331Z,4.88
2022-10-01T05:57:07.885Z,4.55
2022-10-01T05:59:35.275Z,4.70
2022-10-01T06:02:03.876Z,4.25
2022-10-01T06:06:57.447Z,3.67
2022-10-01T06:09:24.204Z,3.50
2022-10-01T06:11:50.863Z,3.55
2022-10-01T06:14:17.630Z,3.97
2022-10-01T06:16:44.674Z,3.10
2022-10-01T06:19:11.467Z,3.60
2022-10-01T06:21:38.236Z,3.50
2022-10-01T06:24:05.283Z,4.35
2022-10-01T06:26:34.898Z,3.60
2022-10-01T06:29:04.472Z,3.67
2022-10-01T06:31:34.607Z,3.60
2022-10-01T06:34:07.627Z,4.28
2022-10-01T06:36:34.482Z,3.50
2022-10-01T06:39:01.233Z,4.03
2022-10-01T06:41:27.880Z,3.88
2022-10-01T06:43:54.532Z,4.20
2022-10-01T06:46:21.372Z,3.90
2022-10-01T06:48:48.121Z,4.10
2022-10-01T06:51:14.819Z,4.07
2022-10-01T06:53:41.511Z,4.15
2022-10-01T06:56:08.372Z,4.70
2022-10-01T06:58:35.298Z,4.50
2022-10-01T07:01:03.798Z,4.15
2022-10-01T07:06:03.157Z,4.33
2022-10-01T07:08:30.226Z,4.22
2022-10-01T07:11:03.024Z,5.25
2022-10-01T07:13:30.107Z,5.40
2022-10-01T07:15:57.117Z,5.05
2022-10-01T07:18:24.010Z,4.70
2022-10-01T07:20:50.816Z,5.05
2022-10-01T07:23:17.571Z,3.97
2022-10-01T07:25:45.235Z,4.70
2022-10-01T07:28:18.985Z,4.47
2022-10-01T07:30:59.657Z,4.45
2022-10-01T07:33:29.011Z,3.85
2022-10-01T07:35:55.739Z,3.63
2022-10-01T07:38:22.414Z,3.97
2022-10-01T07:40:54.665Z,3.50
2022-10-01T07:43:22.027Z,3.63
2022-10-01T07:45:50.020Z,3.20
2022-10-01T07:48:17.193Z,3.65
2022-10-01T07:50:47.232Z,3.67
2022-10-01T07:53:14.112Z,3.28
2022-10-01T07:55:40.866Z,4.00
2022-10-01T07:58:11.006Z,4.28
2022-10-01T08:00:38.626Z,3.35
2022-10-01T08:03:05.533Z,3.15
2022-10-01T08:05:34.841Z,3.95
2022-10-01T08:08:07.149Z,2.78
2022-10-01T08:10:36.567Z,2.47
2022-10-01T08:13:08.245Z,2.92
2022-10-01T08:15:35.601Z,2.60
2022-10-01T08:18:04.033Z,2.35
2022-10-01T08:20:31.044Z,2.60
2022-10-01T08:23:05.390Z,2.50
2022-10-01T08:25:32.662Z,2.60
2022-10-01T08:28:00.365Z,2.63
2022-10-01T08:30:27.890Z,2.77
2022-10-01T08:32:56.163Z,3.13
2022-10-01T08:35:24.032Z,3.00
2022-10-01T08:37:50.954Z,2.80
2022-10-01T08:40:20.203Z,2.50
2022-10-01T08:43:00.087Z,2.35
2022-10-01T08:45:40.593Z,2.33
2022-10-01T08:48:22.841Z,2.60
2022-10-01T08:50:54.663Z,3.78
2022-10-01T08:53:42.550Z,2.08
2022-10-01T08:56:31.661Z,2.38
2022-10-01T08:59:05.617Z,2.55
2022-10-01T09:01:32.681Z,2.50
2022-10-01T09:03:59.794Z,2.15
2022-10-01T09:06:28.255Z,3.47
2022-10-01T09:09:34.024Z,3.08
2022-10-01T09:12:03.792Z,2.60
2022-10-01T09:15:07.909Z,2.63
2022-10-01T09:17:58.539Z,2.20
2022-10-01T09:20:39.086Z,2.45
2022-10-01T09:23:20.113Z,2.42
2022-10-01T09:25:53.244Z,2.35
2022-10-01T09:28:22.828Z,1.95
2022-10-01T09:31:14.371Z,3.28
2022-10-01T09:34:09.099Z,2.25
2022-10-01T09:37:04.726Z,2.90
2022-10-01T09:39:41.631Z,2.80
2022-10-01T09:42:08.518Z,2.25
2022-10-01T09:44:35.420Z,2.40
2022-10-01T09:47:02.100Z,2.28
2022-10-01T09:49:39.669Z,2.50
2022-10-01T09:52:15.119Z,2.35
2022-10-01T09:54:52.026Z,2.80
2022-10-01T09:57:25.967Z,2.28
2022-10-01T10:00:10.574Z,2.10
2022-10-01T10:02:48.435Z,2.60
2022-10-01T10:05:18.651Z,2.30
2022-10-01T10:07:53.061Z,2.55
2022-10-01T10:10:40.600Z,3.05
2022-10-01T10:13:10.862Z,2.80
2022-10-01T10:15:50.929Z,2.72
2022-10-01T10:18:30.185Z,2.55
2022-10-01T10:21:01.502Z,2.05
2022-10-01T10:23:31.378Z,2.22
2022-10-01T10:26:04.106Z,2.10
2022-10-01T10:28:44.165Z,2.28
2022-10-01T10:31:16.711Z,2.67
2022-10-01T10:34:06.449Z,2.30
2022-10-01T10:36:35.961Z,1.88
2022-10-01T10:39:06.337Z,2.47
2022-10-01T10:41:34.601Z,2.10
2022-10-01T10:44:07.366Z,1.77
2022-10-01T10:46:42.796Z,2.47
2022-10-01T10:49:21.804Z,2.25
2022-10-01T10:51:56.042Z,2.30
2022-10-01T10:54:29.280Z,1.67
2022-10-01T10:57:05.346Z,1.70
2022-10-01T10:59:33.660Z,1.90
2022-10-01T11:02:04.274Z,1.90
2022-10-01T11:04:41.714Z,1.92
2022-10-01T11:07:10.898Z,1.83
2022-10-01T11:09:43.363Z,2.05
2022-10-01T11:12:49.803Z,1.85
2022-10-01T11:15:39.139Z,1.58
2022-10-01T11:18:23.301Z,2.28
2022-10-01T11:21:25.918Z,1.92
2022-10-01T11:24:10.640Z,2.15
2022-10-01T11:26:43.671Z,2.35
2022-10-01T11:29:22.903Z,2.45
2022-10-01T11:32:02.822Z,1.98
2022-10-01T11:34:48.644Z,2.83
2022-10-01T11:37:36.640Z,1.80
2022-10-01T11:40:28.748Z,2.22
2022-10-01T11:43:02.338Z,2.03
2022-10-01T11:45:35.879Z,2.60
2022-10-01T11:48:19.354Z,1.88
2022-10-01T11:50:53.253Z,2.40
2022-10-01T11:53:31.006Z,2.03
2022-10-01T11:56:25.976Z,2.20
2022-10-01T11:59:08.858Z,2.40
2022-10-01T12:01:42.181Z,2.13
2022-10-01T12:04:32.223Z,2.85
2022-10-01T12:07:10.888Z,1.80
2022-10-01T12:10:06.923Z,2.45
2022-10-01T12:12:40.509Z,2.20
2022-10-01T12:15:16.558Z,2.00
2022-10-01T12:17:49.129Z,2.13
2022-10-01T12:20:41.751Z,2.42
2022-10-01T12:23:14.410Z,1.90
2022-10-01T12:26:00.978Z,2.88
2022-10-01T12:28:32.672Z,2.35
2022-10-01T12:31:12.870Z,2.28
2022-10-01T12:33:59.931Z,2.53
2022-10-01T12:36:36.661Z,2.22
2022-10-01T12:39:23.666Z,2.25
2022-10-01T12:42:31.305Z,2.25
2022-10-01T12:45:20.359Z,2.05
2022-10-01T12:48:03.269Z,2.38
2022-10-01T12:50:33.409Z,2.78
2022-10-01T12:53:06.510Z,2.70
2022-10-01T12:55:52.394Z,2.70
2022-10-01T12:58:44.220Z,2.83
2022-10-01T13:01:18.707Z,2.58
2022-10-01T13:04:17.228Z,2.50
2022-10-01T13:07:05.163Z,3.20
2022-10-01T13:10:01.222Z,2.65
2022-10-01T13:12:39.707Z,2.63
2022-10-01T13:17:52.272Z,2.13
2022-10-01T13:20:34.021Z,2.38
2022-10-01T13:23:19.996Z,2.42
2022-10-01T13:26:33.093Z,2.53
2022-10-01T13:29:26.022Z,2.65
2022-10-01T13:31:59.659Z,2.13
2022-10-01T13:34:38.660Z,2.28
2022-10-01T13:37:29.472Z,2.38
2022-10-01T13:39:57.331Z,2.67
2022-10-01T13:42:27.689Z,4.65
2022-10-01T13:45:20.864Z,4.70
2022-10-01T13:47:47.946Z,5.22
2022-10-01T13:50:24.838Z,4.45
2022-10-01T13:52:52.551Z,3.95
2022-10-01T13:55:29.746Z,3.10
2022-10-01T13:58:20.586Z,2.80
2022-10-01T14:00:54.494Z,2.80
2022-10-01T14:03:45.921Z,3.60
2022-10-01T14:06:21.644Z,3.25
2022-10-01T14:08:54.111Z,3.72
2022-10-01T14:11:45.684Z,3.58
2022-10-01T14:14:55.451Z,2.80
2022-10-01T14:17:27.826Z,2.15
2022-10-01T14:19:56.496Z,2.75
2022-10-01T14:22:38.917Z,2.55
2022-10-01T14:25:14.337Z,2.63
2022-10-01T14:28:10.485Z,2.85
2022-10-01T14:30:51.103Z,2.53
2022-10-01T14:33:28.730Z,2.75
2022-10-01T14:36:17.649Z,2.73
2022-10-01T14:38:44.537Z,2.25
2022-10-01T14:41:19.661Z,2.17
2022-10-01T14:43:46.625Z,3.38
2022-10-01T14:46:18.398Z,2.20
2022-10-01T14:48:55.933Z,2.40
2022-10-01T14:51:25.860Z,1.92
2022-10-01T14:53:55.101Z,3.17
2022-10-01T14:56:22.893Z,2.25
2022-10-01T14:59:01.839Z,3.72
2022-10-01T15:01:28.667Z,3.90
2022-10-01T15:03:55.765Z,3.40
2022-10-01T15:06:27.970Z,3.40
2022-10-01T15:09:02.127Z,3.15
2022-10-01T15:11:33.902Z,3.25
2022-10-01T15:14:06.495Z,3.45
2022-10-01T15:16:35.537Z,3.65
2022-10-01T15:19:07.371Z,3.03
2022-10-01T15:21:41.872Z,3.00
2022-10-01T15:24:23.495Z,3.40
2022-10-01T15:26:50.995Z,2.85
2022-10-01T15:29:18.214Z,3.15
2022-10-01T15:31:47.327Z,2.42
2022-10-01T15:34:17.332Z,2.58
2022-10-01T15:36:44.405Z,2.58
2022-10-01T15:39:32.887Z,2.42
2022-10-01T15:42:08.880Z,2.33
2022-10-01T15:44:46.280Z,2.70
2022-10-01T15:47:27.793Z,2.97
2022-10-01T15:50:15.240Z,2.50
2022-10-01T15:52:54.077Z,2.47
2022-10-01T15:55:26.553Z,2.38
2022-10-01T15:58:15.066Z,2.13
2022-10-01T16:00:44.170Z,2.10
2022-10-01T16:03:27.350Z,2.70
2022-10-01T16:05:55.214Z,5.60
2022-10-01T16:08:25.800Z,11.77
2022-10-01T16:11:31.603Z,10.50
2022-10-01T16:14:31.755Z,10.02
2022-10-01T16:17:16.725Z,5.30
2022-10-01T16:19:49.269Z,2.05
2022-10-01T16:22:25.886Z,1.80
2022-10-01T16:24:58.117Z,2.40
2022-10-01T16:27:46.306Z,1.98
2022-10-01T16:30:20.477Z,1.63
2022-10-01T16:32:47.899Z,2.47
2022-10-01T16:35:15.433Z,2.22
2022-10-01T16:37:42.417Z,1.80
2022-10-01T16:40:15.185Z,1.70
2022-10-01T16:42:43.759Z,1.90
2022-10-01T16:45:22.518Z,2.70
2022-10-01T16:47:49.215Z,1.33
2022-10-01T16:50:17.820Z,1.95
2022-10-01T16:55:26.875Z,2.25
2022-10-01T16:57:57.097Z,2.88
2022-10-01T17:00:26.260Z,2.05
2022-10-01T17:02:54.272Z,2.03
2022-10-01T17:05:26.294Z,1.92
2022-10-01T17:07:54.050Z,2.10
2022-10-01T17:10:23.388Z,2.43
2022-10-01T17:12:50.380Z,1.75
2022-10-01T17:15:25.469Z,1.88
2022-10-01T17:17:55.704Z,1.65
2022-10-01T17:20:23.485Z,1.85
2022-10-01T17:22:51.709Z,1.88
2022-10-01T17:25:21.117Z,1.75
2022-10-01T17:27:49.147Z,1.73
2022-10-01T17:30:16.582Z,1.50
2022-10-01T17:32:43.886Z,2.13
2022-10-01T17:35:12.961Z,2.17
2022-10-01T17:37:40.376Z,1.67
2022-10-01T17:40:08.019Z,1.70
2022-10-01T17:42:35.693Z,2.17
2022-10-01T17:45:06.088Z,1.50
2022-10-01T17:47:33.585Z,2.00
2022-10-01T17:50:00.439Z,2.13
2022-10-01T17:52:27.189Z,2.20
2022-10-01T17:54:53.944Z,2.03
2022-10-01T17:57:20.891Z,2.50
2022-10-01T17:59:47.598Z,2.67
2022-10-01T18:02:39.983Z,1.98
2022-10-01T18:05:03.405Z,2.22
2022-10-01T18:07:30.071Z,2.90
2022-10-01T18:09:56.767Z,3.95
2022-10-01T18:12:23.439Z,2.90
2022-10-01T18:14:50.171Z,2.75
2022-10-01T18:17:16.854Z,2.53
2022-10-01T18:19:53.310Z,2.28
2022-10-01T18:22:21.063Z,2.63
2022-10-01T18:24:47.918Z,2.60
2022-10-01T18:27:14.935Z,2.30
2022-10-01T18:29:41.681Z,2.65
2022-10-01T18:32:33.266Z,2.72
2022-10-01T18:35:05.921Z,3.08
2022-10-01T18:37:39.024Z,2.70
2022-10-01T18:40:15.417Z,2.50
2022-10-01T18:43:08.389Z,2.08
2022-10-01T18:46:14.660Z,2.05
2022-10-01T18:48:56.145Z,2.25
2022-10-01T18:51:38.047Z,2.40
2022-10-01T18:54:17.072Z,2.20
2022-10-01T18:57:00.651Z,2.10
2022-10-01T18:59:38.590Z,2.15
2022-10-01T19:02:13.207Z,2.60
2022-10-01T19:05:06.595Z,3.33
2022-10-01T19:08:15.049Z,2.58
2022-10-01T19:11:02.749Z,2.13
2022-10-01T19:13:52.594Z,2.65
2022-10-01T19:16:34.384Z,2.47
2022-10-01T19:19:25.084Z,1.98
2022-10-01T19:21:58.515Z,3.40
2022-10-01T19:24:43.357Z,3.20
2022-10-01T19:27:34.943Z,2.88
2022-10-01T19:30:14.265Z,2.80
2022-10-01T19:33:01.254Z,3.22
2022-10-01T19:35:32.528Z,3.40
2022-10-01T19:38:19.911Z,3.35
2022-10-01T19:40:51.972Z,2.90
2022-10-01T19:43:42.177Z,2.70
2022-10-01T19:46:16.376Z,2.72
2022-10-01T19:48:46.900Z,3.03
2022-10-01T19:51:18.324Z,2.60
2022-10-01T19:53:49.514Z,2.60
2022-10-01T19:56:22.935Z,2.45
2022-10-01T19:58:49.679Z,2.67
2022-10-01T20:01:20.721Z,2.30
2022-10-01T20:04:25.302Z,2.30
2022-10-01T20:06:57.419Z,2.38
2022-10-01T20:09:29.001Z,2.10
2022-10-01T20:12:04.445Z,2.33
2022-10-01T20:15:11.281Z,2.45
2022-10-01T20:18:04.063Z,2.30
2022-10-01T20:20:56.164Z,2.20
2022-10-01T20:23:25.923Z,2.83
2022-10-01T20:26:42.879Z,2.30
2022-10-01T20:29:28.053Z,1.88
2022-10-01T20:32:11.550Z,2.60
2022-10-01T20:34:41.376Z,2.70
2022-10-01T20:37:57.007Z,2.88
2022-10-01T20:40:28.502Z,2.67
2022-10-01T20:43:15.081Z,2.58
2022-10-01T20:45:42.505Z,3.25
2022-10-01T20:48:19.315Z,2.42
2022-10-01T20:50:53.750Z,2.60
2022-10-01T20:53:33.987Z,2.65
2022-10-01T20:56:15.512Z,2.47
2022-10-01T20:58:50.171Z,2.17
2022-10-01T21:01:21.211Z,3.15
2022-10-01T21:04:18.408Z,3.30
2022-10-01T21:06:53.228Z,2.50
2022-10-01T21:09:29.929Z,2.90
2022-10-01T21:12:09.784Z,2.85
2022-10-01T21:14:45.569Z,2.35
2022-10-01T21:17:45.892Z,2.78
2022-10-01T21:20:31.350Z,2.25
2022-10-01T21:23:10.434Z,2.97
2022-10-01T21:26:01.808Z,2.67
2022-10-01T21:28:49.969Z,2.90
2022-10-01T21:31:38.741Z,2.50
2022-10-01T21:34:20.172Z,2.72
2022-10-01T21:37:00.095Z,2.78
2022-10-01T21:39:54.485Z,2.60
2022-10-01T21:42:38.907Z,3.03
2022-10-01T21:45:20.790Z,2.72
2022-10-01T21:47:59.322Z,2.80
2022-10-01T21:53:35.579Z,3.83
2022-10-01T21:56:37.327Z,3.70
2022-10-01T21:59:58.474Z,3.90
2022-10-01T22:02:39.997Z,3.95
2022-10-01T22:05:33.278Z,3.60
2022-10-01T22:08:12.439Z,4.10
2022-10-01T22:11:04.049Z,3.72
2022-10-01T22:13:35.872Z,3.65
2022-10-01T22:16:08.345Z,3.72
2022-10-01T22:18:45.321Z,3.65
2022-10-01T22:21:17.293Z,4.00
2022-10-01T22:23:57.936Z,4.07
2022-10-01T22:26:29.280Z,5.28
2022-10-01T22:28:56.746Z,3.63
2022-10-01T22:31:27.491Z,4.68
2022-10-01T22:34:05.137Z,4.68
2022-10-01T22:36:47.715Z,4.27
2022-10-01T22:39:25.619Z,5.20
2022-10-01T22:42:08.583Z,4.85
2022-10-01T22:44:35.298Z,5.57
2022-10-01T22:47:02.196Z,4.00
2022-10-01T22:50:02.064Z,3.97
2022-10-01T22:52:53.002Z,4.90
2022-10-01T22:55:54.468Z,4.45
2022-10-01T22:58:55.745Z,3.63
2022-10-01T23:01:42.319Z,3.78
2022-10-01T23:04:18.369Z,3.78
2022-10-01T23:07:14.317Z,4.10
2022-10-01T23:09:46.749Z,3.75
2022-10-01T23:12:39.537Z,3.25
2022-10-01T23:15:27.350Z,3.85
2022-10-01T23:18:01.436Z,3.13
2022-10-01T23:20:30.571Z,3.75
2022-10-01T23:23:10.055Z,3.28
2022-10-01T23:25:43.949Z,3.50
2022-10-01T23:28:16.577Z,4.20
2022-10-01T23:31:02.558Z,3.25
2022-10-01T23:33:44.996Z,3.13
2022-10-01T23:36:49.049Z,2.92
2022-10-01T23:39:21.560Z,3.95
2022-10-01T23:41:59.931Z,3.00
2022-10-01T23:44:38.811Z,3.00
2022-10-01T23:47:12.459Z,3.28
2022-10-01T23:49:45.243Z,3.20
2022-10-01T23:52:18.898Z,2.67
2022-10-01T23:54:54.027Z,2.53
2022-10-01T23:57:31.199Z,2.17
